createdAt,value
2023-04-27T00:00:09.824Z,10.60
2023-04-27T00:02:38.540Z,10.60
2023-04-27T00:05:12.346Z,10.60
2023-04-27T00:07:41.208Z,10.60
2023-04-27T00:10:10.458Z,10.50
2023-04-27T00:12:41.884Z,10.50
2023-04-27T00:15:11.201Z,10.50
2023-04-27T00:17:39.381Z,10.40
2023-04-27T00:20:10.077Z,10.50
2023-04-27T00:22:38.194Z,10.60
2023-04-27T00:25:06.931Z,10.60
2023-04-27T00:27:35.019Z,10.60
2023-04-27T00:30:07.186Z,10.70
2023-04-27T00:32:35.793Z,10.70
2023-04-27T00:35:04.933Z,10.80
2023-04-27T00:37:33.353Z,10.70
2023-04-27T00:40:01.702Z,10.70
2023-04-27T00:42:31.057Z,10.70
2023-04-27T00:44:59.761Z,10.70
2023-04-27T00:47:30.356Z,10.70
2023-04-27T00:49:59.128Z,10.70
2023-04-27T00:52:27.554Z,10.80
2023-04-27T00:54:58.507Z,10.80
2023-04-27T00:57:26.584Z,10.70
2023-04-27T00:59:55.133Z,10.70
2023-04-27T01:02:23.635Z,10.80
2023-04-27T01:04:53.383Z,10.80
2023-04-27T01:07:26.018Z,10.80
2023-04-27T01:09:54.147Z,10.80
2023-04-27T01:12:22.681Z,10.80
2023-04-27T01:14:50.841Z,10.80
2023-04-27T01:20:10.962Z,10.80
2023-04-27T01:22:40.262Z,10.80
2023-04-27T01:25:10.039Z,10.80
2023-04-27T01:27:38.626Z,10.80
2023-04-27T01:30:07.837Z,10.80
2023-04-27T01:32:38.236Z,10.70
2023-04-27T01:35:06.850Z,10.80
2023-04-27T01:37:35.873Z,10.80
2023-04-27T01:40:04.791Z,10.80
2023-04-27T01:42:34.841Z,10.70
2023-04-27T01:45:04.077Z,10.80
2023-04-27T01:47:33.654Z,10.70
2023-04-27T01:50:01.793Z,10.70
2023-04-27T01:52:31.505Z,10.70
2023-04-27T01:54:59.635Z,10.70
2023-04-27T01:57:28.794Z,10.70
2023-04-27T01:59:58.529Z,10.70
2023-04-27T02:02:27.199Z,10.70
2023-04-27T02:04:55.391Z,10.70
2023-04-27T02:07:23.791Z,10.70
2023-04-27T02:09:51.922Z,10.60
2023-04-27T02:12:20.429Z,10.60
2023-04-27T02:14:48.541Z,10.60
2023-04-27T02:17:18.361Z,10.50
2023-04-27T02:19:47.561Z,10.50
2023-04-27T02:22:16.397Z,10.50
2023-04-27T02:24:44.507Z,10.40
2023-04-27T02:27:12.990Z,10.40
2023-04-27T02:29:41.875Z,10.40
2023-04-27T02:32:10.599Z,10.40
2023-04-27T02:34:41.520Z,10.40
2023-04-27T02:37:11.119Z,10.40
2023-04-27T02:39:39.442Z,10.30
2023-04-27T02:42:07.828Z,10.30
2023-04-27T02:44:37.298Z,10.40
2023-04-27T02:47:07.599Z,10.40
2023-04-27T02:49:38.041Z,10.30
2023-04-27T02:52:08.309Z,10.30
2023-04-27T02:54:37.420Z,10.20
2023-04-27T02:57:05.468Z,10.20
2023-04-27T02:59:33.876Z,10.10
2023-04-27T03:02:01.973Z,10.00
2023-04-27T03:04:30.657Z,10.00
2023-04-27T03:06:59.013Z,9.90
2023-04-27T03:09:29.016Z,9.80
2023-04-27T03:11:58.824Z,9.50
2023-04-27T03:14:28.607Z,9.40
2023-04-27T03:16:57.391Z,9.30
2023-04-27T03:19:25.564Z,9.30
2023-04-27T03:21:53.756Z,9.20
2023-04-27T03:24:25.615Z,9.10
2023-04-27T03:26:55.173Z,9.10
2023-04-27T03:29:24.029Z,9.10
2023-04-27T03:31:52.161Z,9.10
2023-04-27T03:34:22.223Z,9.00
2023-04-27T03:36:50.862Z,9.10
2023-04-27T03:39:19.331Z,9.10
2023-04-27T03:41:48.047Z,9.20
2023-04-27T03:44:17.662Z,9.20
2023-04-27T03:46:46.268Z,9.30
2023-04-27T03:49:14.718Z,9.40
2023-04-27T03:51:44.213Z,9.30
2023-04-27T03:54:12.303Z,9.20
2023-04-27T03:56:41.002Z,9.10
2023-04-27T03:59:09.757Z,9.10
2023-04-27T04:01:41.305Z,9.10
2023-04-27T04:04:09.506Z,9.10
2023-04-27T04:06:38.205Z,9.20
2023-04-27T04:09:06.803Z,9.20
2023-04-27T04:11:35.422Z,9.20
2023-04-27T04:14:06.913Z,9.20
2023-04-27T04:16:36.190Z,9.30
2023-04-27T04:19:05.716Z,9.30
2023-04-27T04:21:34.436Z,9.40
2023-04-27T04:24:03.025Z,10.00
2023-04-27T04:26:31.720Z,9.50
2023-04-27T04:29:00.045Z,9.50
2023-04-27T04:31:29.970Z,9.50
2023-04-27T04:33:58.165Z,9.50
2023-04-27T04:36:28.494Z,9.40
2023-04-27T04:38:57.474Z,9.30
2023-04-27T04:41:26.968Z,9.20
2023-04-27T04:43:55.835Z,9.20
2023-04-27T04:46:24.719Z,9.10
2023-04-27T04:48:54.878Z,9.10
2023-04-27T04:51:23.244Z,9.10
2023-04-27T04:53:52.958Z,9.00
2023-04-27T04:56:21.225Z,8.90
2023-04-27T04:58:49.769Z,8.90
2023-04-27T05:01:17.960Z,8.80
2023-04-27T05:03:46.750Z,8.80
2023-04-27T05:06:15.094Z,8.80
2023-04-27T05:08:43.768Z,8.90
2023-04-27T05:11:13.216Z,9.00
2023-04-27T05:13:41.555Z,9.10
2023-04-27T05:16:09.873Z,9.20
2023-04-27T05:18:38.003Z,9.30
2023-04-27T05:21:06.637Z,9.30
2023-04-27T05:23:34.696Z,9.10
2023-04-27T05:26:03.448Z,9.10
2023-04-27T05:28:32.893Z,9.10
2023-04-27T05:31:01.627Z,9.10
2023-04-27T05:33:29.804Z,9.10
2023-04-27T05:35:58.101Z,9.20
2023-04-27T05:38:26.254Z,9.20
2023-04-27T05:40:55.735Z,9.30
2023-04-27T05:43:23.954Z,9.20
2023-04-27T05:45:54.476Z,9.10
2023-04-27T05:48:22.605Z,9.10
2023-04-27T05:50:51.496Z,9.10
2023-04-27T05:53:19.660Z,9.10
2023-04-27T05:55:47.970Z,9.00
2023-04-27T05:58:17.541Z,8.50
2023-04-27T06:00:46.704Z,8.70
2023-04-27T06:03:16.464Z,8.70
2023-04-27T06:05:45.180Z,8.80
2023-04-27T06:08:13.497Z,8.80
2023-04-27T06:10:42.268Z,9.00
2023-04-27T06:13:10.303Z,9.00
2023-04-27T06:15:38.643Z,9.00
2023-04-27T06:18:07.826Z,9.10
2023-04-27T06:20:37.393Z,9.20
2023-04-27T06:23:05.806Z,9.20
2023-04-27T06:25:34.668Z,9.30
2023-04-27T06:28:03.855Z,9.50
2023-04-27T06:30:32.222Z,9.50
2023-04-27T06:33:00.442Z,9.50
2023-04-27T06:35:28.992Z,9.50
2023-04-27T06:37:58.877Z,9.60
2023-04-27T06:40:27.522Z,9.60
2023-04-27T06:42:56.403Z,9.80
2023-04-27T06:45:24.534Z,9.90
2023-04-27T06:47:53.361Z,10.00
2023-04-27T06:50:21.662Z,10.00
2023-04-27T06:52:50.140Z,10.00
2023-04-27T06:55:19.739Z,10.10
2023-04-27T06:57:48.547Z,10.20
2023-04-27T07:00:16.892Z,10.20
2023-04-27T07:02:45.121Z,10.30
2023-04-27T07:05:13.265Z,10.30
2023-04-27T07:07:41.793Z,10.40
2023-04-27T07:10:10.351Z,10.40
2023-04-27T07:12:40.844Z,10.50
2023-04-27T07:15:09.583Z,10.50
2023-04-27T07:17:38.275Z,10.60
2023-04-27T07:20:07.485Z,10.70
2023-04-27T07:22:35.668Z,10.70
2023-04-27T07:25:04.465Z,10.70
2023-04-27T07:27:33.132Z,10.80
2023-04-27T07:30:03.461Z,10.90
2023-04-27T07:32:32.339Z,10.90
2023-04-27T07:35:02.486Z,11.00
2023-04-27T07:37:31.485Z,11.00
2023-04-27T07:39:59.912Z,11.10
2023-04-27T07:42:28.022Z,11.10
2023-04-27T07:44:57.329Z,11.10
2023-04-27T07:47:27.060Z,11.20
2023-04-27T07:49:55.748Z,11.30
2023-04-27T07:52:24.466Z,11.30
2023-04-27T07:54:53.177Z,11.30
2023-04-27T07:57:24.405Z,11.30
2023-04-27T07:59:52.775Z,11.30
2023-04-27T08:02:21.150Z,11.40
2023-04-27T08:04:51.083Z,11.50
2023-04-27T08:07:19.847Z,11.60
2023-04-27T08:09:48.208Z,11.60
2023-04-27T08:12:16.762Z,11.60
2023-04-27T08:14:44.813Z,11.70
2023-04-27T08:17:13.339Z,11.80
2023-04-27T08:19:42.184Z,11.70
2023-04-27T08:22:11.819Z,11.60
2023-04-27T08:24:42.077Z,11.60
2023-04-27T08:27:10.389Z,11.70
2023-04-27T08:29:38.683Z,11.90
2023-04-27T08:32:07.172Z,12.00
2023-04-27T08:34:35.490Z,12.10
2023-04-27T08:37:04.386Z,12.10
2023-04-27T08:39:34.988Z,12.20
2023-04-27T08:42:03.486Z,12.30
2023-04-27T08:44:31.550Z,12.40
2023-04-27T08:47:00.171Z,12.50
2023-04-27T08:49:28.264Z,12.50
2023-04-27T08:51:57.102Z,12.60
2023-04-27T08:54:25.136Z,12.70
2023-04-27T08:56:54.984Z,12.70
2023-04-27T08:59:23.128Z,12.80
2023-04-27T09:01:51.537Z,12.80
2023-04-27T09:04:20.290Z,12.80
2023-04-27T09:06:49.862Z,12.60
2023-04-27T09:09:24.386Z,12.80
2023-04-27T09:11:52.696Z,12.90
2023-04-27T09:14:23.016Z,12.90
2023-04-27T09:16:59.640Z,13.00
2023-04-27T09:19:28.835Z,13.10
2023-04-27T09:22:08.169Z,13.00
2023-04-27T09:24:36.234Z,13.00
2023-04-27T09:27:05.073Z,13.20
2023-04-27T09:29:35.669Z,13.40
2023-04-27T09:32:17.006Z,13.60
2023-04-27T09:34:46.449Z,13.80
2023-04-27T09:37:15.297Z,13.90
2023-04-27T09:39:44.107Z,14.00
2023-04-27T09:42:13.041Z,14.10
2023-04-27T09:44:42.950Z,14.30
2023-04-27T09:47:11.687Z,14.30
2023-04-27T09:49:40.492Z,14.30
2023-04-27T09:52:08.665Z,14.30
2023-04-27T09:54:37.351Z,14.40
2023-04-27T09:57:11.475Z,14.50
2023-04-27T10:00:01.380Z,14.70
2023-04-27T10:02:42.985Z,14.70
2023-04-27T10:05:30.070Z,14.40
2023-04-27T10:07:58.553Z,15.00
2023-04-27T10:10:26.741Z,15.20
2023-04-27T10:12:59.011Z,15.30
2023-04-27T10:15:30.008Z,15.40
2023-04-27T10:18:04.972Z,15.30
2023-04-27T10:20:34.031Z,15.30
2023-04-27T10:23:02.382Z,15.30
2023-04-27T10:25:38.588Z,15.30
2023-04-27T10:28:08.388Z,15.30
2023-04-27T10:30:38.771Z,15.40
2023-04-27T10:33:08.986Z,15.40
2023-04-27T10:35:38.131Z,15.40
2023-04-27T10:38:07.029Z,15.40
2023-04-27T10:40:35.806Z,15.40
2023-04-27T10:43:10.779Z,15.50
2023-04-27T10:45:42.396Z,15.60
2023-04-27T10:48:13.188Z,15.70
2023-04-27T10:50:41.928Z,15.80
2023-04-27T10:53:10.065Z,15.90
2023-04-27T10:55:38.869Z,16.10
2023-04-27T10:58:07.133Z,16.30
2023-04-27T11:00:37.604Z,16.40
2023-04-27T11:03:14.866Z,16.40
2023-04-27T11:05:44.826Z,16.30
2023-04-27T11:08:14.037Z,16.30
2023-04-27T11:10:46.475Z,16.30
2023-04-27T11:13:15.185Z,16.40
2023-04-27T11:15:45.005Z,16.50
2023-04-27T11:18:15.494Z,16.60
2023-04-27T11:20:44.906Z,16.60
2023-04-27T11:23:23.306Z,16.70
2023-04-27T11:25:53.017Z,16.70
2023-04-27T11:28:21.953Z,16.60
2023-04-27T11:30:56.870Z,16.60
2023-04-27T11:33:26.573Z,16.70
2023-04-27T11:35:57.401Z,16.80
2023-04-27T11:38:34.197Z,16.90
2023-04-27T11:41:04.329Z,17.10
2023-04-27T11:43:32.729Z,17.10
2023-04-27T11:46:03.459Z,17.20
2023-04-27T11:48:33.133Z,17.20
2023-04-27T11:51:01.658Z,17.10
2023-04-27T11:53:30.590Z,17.00
2023-04-27T11:56:01.040Z,16.90
2023-04-27T11:58:30.267Z,16.80
2023-04-27T12:00:58.693Z,16.70
2023-04-27T12:03:27.310Z,16.60
2023-04-27T12:06:04.067Z,16.60
2023-04-27T12:08:40.199Z,16.70
2023-04-27T12:11:08.255Z,16.90
2023-04-27T12:13:36.963Z,17.00
2023-04-27T12:16:05.266Z,17.00
2023-04-27T12:18:33.467Z,17.00
2023-04-27T12:21:08.248Z,17.00
2023-04-27T12:23:36.938Z,17.00
2023-04-27T12:26:05.237Z,17.20
2023-04-27T12:28:33.295Z,17.30
2023-04-27T12:31:04.238Z,17.40
2023-04-27T12:33:32.705Z,17.40
2023-04-27T12:36:01.331Z,17.40
2023-04-27T12:38:31.130Z,17.40
2023-04-27T12:40:59.832Z,17.40
2023-04-27T12:43:28.175Z,17.60
2023-04-27T12:45:56.291Z,17.70
2023-04-27T12:48:24.803Z,17.80
2023-04-27T12:50:52.917Z,17.80
2023-04-27T12:53:21.720Z,17.90
2023-04-27T12:55:51.427Z,17.90
2023-04-27T12:58:19.559Z,17.90
2023-04-27T13:00:47.904Z,18.00
2023-04-27T13:03:16.176Z,18.00
2023-04-27T13:05:45.769Z,18.20
2023-04-27T13:08:13.895Z,18.20
2023-04-27T13:10:42.388Z,18.20
2023-04-27T13:13:11.906Z,18.30
2023-04-27T13:15:40.257Z,18.30
2023-04-27T13:18:08.637Z,18.30
2023-04-27T13:20:37.964Z,18.30
2023-04-27T13:23:07.723Z,18.30
2023-04-27T13:25:36.235Z,18.40
2023-04-27T13:28:04.317Z,18.50
2023-04-27T13:30:34.113Z,18.70
2023-04-27T13:33:18.370Z,18.80
2023-04-27T13:35:51.596Z,18.80
2023-04-27T13:38:20.238Z,18.80
2023-04-27T13:40:48.515Z,18.60
2023-04-27T13:43:17.813Z,18.50
2023-04-27T13:45:49.202Z,18.30
2023-04-27T13:48:17.891Z,18.20
2023-04-27T13:50:46.638Z,18.00
2023-04-27T13:53:16.907Z,17.80
2023-04-27T13:55:45.018Z,17.80
2023-04-27T13:58:14.304Z,17.80
2023-04-27T14:00:42.439Z,17.70
2023-04-27T14:03:12.700Z,17.60
2023-04-27T14:05:41.527Z,17.60
2023-04-27T14:08:10.040Z,17.40
2023-04-27T14:10:38.100Z,17.30
2023-04-27T14:13:06.950Z,17.20
2023-04-27T14:15:37.234Z,17.20
2023-04-27T14:18:07.130Z,17.20
2023-04-27T14:20:37.089Z,17.10
2023-04-27T14:23:06.454Z,17.20
2023-04-27T14:25:35.165Z,17.10
2023-04-27T14:28:05.043Z,17.00
2023-04-27T14:30:33.528Z,16.90
2023-04-27T14:33:01.899Z,16.90
2023-04-27T14:35:30.824Z,16.90
2023-04-27T14:38:02.453Z,16.90
2023-04-27T14:40:31.164Z,16.90
2023-04-27T14:42:59.526Z,16.90
2023-04-27T14:45:36.644Z,16.90
2023-04-27T14:48:14.934Z,17.00
2023-04-27T14:50:43.513Z,17.00
2023-04-27T14:53:12.998Z,17.00
2023-04-27T14:55:43.297Z,17.00
2023-04-27T14:58:11.737Z,17.10
2023-04-27T15:00:39.858Z,17.00
2023-04-27T15:03:08.632Z,17.10
2023-04-27T15:05:36.818Z,17.10
2023-04-27T15:08:04.878Z,17.20
2023-04-27T15:10:34.371Z,17.20
2023-04-27T15:13:02.827Z,17.20
2023-04-27T15:16:03.209Z,17.20
2023-04-27T15:18:56.181Z,17.30
2023-04-27T15:21:24.246Z,17.40
2023-04-27T15:23:52.304Z,17.40
2023-04-27T15:26:21.723Z,17.40
2023-04-27T15:28:49.791Z,17.40
2023-04-27T15:31:18.015Z,17.40
2023-04-27T15:33:46.260Z,17.40
2023-04-27T15:36:14.263Z,17.30
2023-04-27T15:38:42.369Z,17.20
2023-04-27T15:41:10.639Z,17.10
2023-04-27T15:43:40.061Z,17.00
2023-04-27T15:46:08.166Z,17.00
2023-04-27T15:48:36.275Z,17.00
2023-04-27T15:51:08.308Z,17.00
2023-04-27T15:53:38.714Z,17.00
2023-04-27T15:56:14.163Z,16.70
2023-04-27T15:58:43.610Z,16.60
2023-04-27T16:01:12.471Z,16.50
2023-04-27T16:03:40.812Z,16.40
2023-04-27T16:06:09.301Z,16.40
2023-04-27T16:08:37.477Z,16.50
2023-04-27T16:11:06.664Z,16.30
2023-04-27T16:13:35.003Z,16.30
2023-04-27T16:16:05.250Z,16.30
2023-04-27T16:18:34.745Z,16.40
2023-04-27T16:21:04.002Z,16.40
2023-04-27T16:23:32.135Z,16.40
2023-04-27T16:26:00.220Z,16.40
2023-04-27T16:28:28.559Z,16.30
2023-04-27T16:30:56.770Z,16.30
2023-04-27T16:33:26.689Z,16.30
2023-04-27T16:35:55.044Z,16.30
2023-04-27T16:38:23.090Z,16.10
2023-04-27T16:40:52.654Z,16.10
2023-04-27T16:43:21.537Z,16.10
2023-04-27T16:45:49.781Z,16.20
2023-04-27T16:48:19.288Z,16.20
2023-04-27T16:50:49.630Z,16.20
2023-04-27T16:53:22.193Z,16.20
2023-04-27T16:55:50.230Z,16.30
2023-04-27T16:58:18.515Z,16.30
2023-04-27T17:00:47.815Z,16.30
2023-04-27T17:03:17.079Z,16.30
2023-04-27T17:05:46.277Z,16.40
2023-04-27T17:08:16.030Z,16.40
2023-04-27T17:10:45.535Z,16.40
2023-04-27T17:13:15.783Z,16.40
2023-04-27T17:15:49.217Z,16.40
2023-04-27T17:18:18.066Z,16.40
2023-04-27T17:20:49.363Z,16.40
2023-04-27T17:23:18.801Z,16.30
2023-04-27T17:25:47.188Z,16.30
2023-04-27T17:28:15.658Z,16.40
2023-04-27T17:30:43.819Z,16.30
2023-04-27T17:33:12.017Z,16.40
2023-04-27T17:35:40.688Z,16.30
2023-04-27T17:38:08.842Z,16.30
2023-04-27T17:40:38.277Z,16.30
2023-04-27T17:43:06.535Z,16.20
2023-04-27T17:45:34.901Z,16.20
2023-04-27T17:48:03.252Z,16.10
2023-04-27T17:50:31.750Z,15.90
2023-04-27T17:52:59.855Z,15.90
2023-04-27T17:55:28.012Z,15.80
2023-04-27T17:57:57.458Z,15.80
2023-04-27T18:00:25.515Z,15.80
2023-04-27T18:02:53.677Z,15.80
2023-04-27T18:05:21.961Z,15.80
2023-04-27T18:07:50.182Z,15.80
2023-04-27T18:10:18.322Z,15.80
2023-04-27T18:12:47.702Z,15.80
2023-04-27T18:15:17.211Z,15.80
2023-04-27T18:17:45.481Z,15.70
2023-04-27T18:20:15.263Z,15.70
2023-04-27T18:22:43.610Z,15.70
2023-04-27T18:25:13.087Z,15.70
2023-04-27T18:27:41.462Z,15.70
2023-04-27T18:30:09.733Z,15.70
2023-04-27T18:32:39.138Z,15.70
2023-04-27T18:35:07.947Z,15.60
2023-04-27T18:37:36.116Z,15.60
2023-04-27T18:40:05.736Z,15.60
2023-04-27T18:42:33.879Z,15.50
2023-04-27T18:45:01.952Z,15.50
2023-04-27T18:47:32.054Z,15.50
2023-04-27T18:50:01.461Z,15.40
2023-04-27T18:52:29.570Z,15.40
2023-04-27T18:54:57.687Z,15.30
2023-04-27T18:57:26.499Z,15.30
2023-04-27T18:59:56.260Z,15.30
2023-04-27T19:02:25.228Z,15.30
2023-04-27T19:05:10.386Z,15.20
2023-04-27T19:07:42.285Z,15.20
2023-04-27T19:10:10.961Z,15.20
2023-04-27T19:12:39.083Z,15.20
2023-04-27T19:15:10.181Z,15.00
2023-04-27T19:17:38.470Z,15.00
2023-04-27T19:20:07.148Z,14.90
2023-04-27T19:22:36.673Z,14.90
2023-04-27T19:25:07.039Z,14.90
2023-04-27T19:27:35.325Z,14.80
2023-04-27T19:30:04.326Z,14.70
2023-04-27T19:32:34.184Z,14.60
2023-04-27T19:35:02.478Z,14.60
2023-04-27T19:37:30.956Z,14.60
2023-04-27T19:39:59.142Z,14.50
2023-04-27T19:42:28.550Z,14.40
2023-04-27T19:44:57.035Z,14.40
2023-04-27T19:47:25.153Z,14.40
2023-04-27T19:49:53.330Z,14.40
2023-04-27T19:52:21.441Z,14.40
2023-04-27T19:54:52.073Z,14.40
2023-04-27T19:57:20.640Z,14.30
2023-04-27T19:59:50.008Z,14.20
2023-04-27T20:02:18.220Z,14.10
2023-04-27T20:04:47.099Z,14.00
2023-04-27T20:07:15.456Z,14.00
2023-04-27T20:09:43.683Z,13.80
2023-04-27T20:12:25.741Z,13.80
2023-04-27T20:15:01.184Z,13.80
2023-04-27T20:17:31.392Z,13.70
2023-04-27T20:19:59.553Z,13.70
2023-04-27T20:22:27.598Z,13.70
2023-04-27T20:24:58.953Z,13.70
2023-04-27T20:27:27.058Z,13.80
2023-04-27T20:29:55.242Z,13.80
2023-04-27T20:32:24.675Z,13.60
2023-04-27T20:34:53.071Z,13.60
2023-04-27T20:37:21.243Z,13.60
2023-04-27T20:39:49.345Z,13.50
2023-04-27T20:42:17.486Z,13.40
2023-04-27T20:44:46.968Z,13.40
2023-04-27T20:47:15.572Z,13.30
2023-04-27T20:49:47.546Z,13.20
2023-04-27T20:52:15.834Z,13.20
2023-04-27T20:54:44.051Z,13.30
2023-04-27T20:57:14.165Z,13.30
2023-04-27T20:59:42.442Z,13.20
2023-04-27T21:02:10.597Z,13.10
2023-04-27T21:04:39.462Z,13.20
2023-04-27T21:07:08.980Z,13.20
2023-04-27T21:09:38.648Z,13.20
2023-04-27T21:12:06.863Z,13.20
2023-04-27T21:14:34.898Z,13.10
2023-04-27T21:17:03.003Z,13.10
2023-04-27T21:19:31.131Z,13.00
2023-04-27T21:21:59.274Z,12.90
2023-04-27T21:24:28.819Z,12.90
2023-04-27T21:26:57.768Z,12.80
2023-04-27T21:29:25.961Z,12.80
2023-04-27T21:31:54.038Z,12.80
2023-04-27T21:34:22.194Z,12.70
2023-04-27T21:36:50.305Z,12.60
2023-04-27T21:39:18.359Z,12.50
2023-04-27T21:41:47.814Z,12.50
2023-04-27T21:44:16.159Z,12.50
2023-04-27T21:46:44.550Z,12.30
2023-04-27T21:49:12.757Z,12.20
2023-04-27T21:51:40.994Z,12.10
2023-04-27T21:54:09.165Z,12.10
2023-04-27T21:56:37.887Z,12.00
2023-04-27T21:59:08.021Z,11.90
2023-04-27T22:01:37.807Z,11.90
2023-04-27T22:04:06.434Z,12.00
2023-04-27T22:06:34.695Z,12.10
2023-04-27T22:09:02.837Z,12.00
2023-04-27T22:11:31.086Z,12.00
2023-04-27T22:13:59.162Z,12.10
2023-04-27T22:16:30.178Z,12.10
2023-04-27T22:18:58.428Z,12.10
2023-04-27T22:21:27.351Z,11.90
2023-04-27T22:23:55.736Z,11.80
2023-04-27T22:26:24.140Z,11.90
2023-04-27T22:28:52.251Z,12.00
2023-04-27T22:31:20.424Z,12.00
2023-04-27T22:33:49.950Z,12.00
2023-04-27T22:36:18.076Z,12.10
2023-04-27T22:38:46.513Z,12.10
2023-04-27T22:41:14.534Z,12.00
2023-04-27T22:43:42.521Z,11.90
2023-04-27T22:46:10.922Z,12.00
2023-04-27T22:48:38.937Z,12.10
2023-04-27T22:51:10.298Z,12.10
2023-04-27T22:53:38.367Z,12.20
2023-04-27T22:56:07.672Z,12.10
2023-04-27T22:58:36.552Z,12.10
2023-04-27T23:01:04.867Z,12.00
2023-04-27T23:03:33.057Z,12.00
2023-04-27T23:06:01.805Z,11.90
2023-04-27T23:08:31.214Z,11.90
